Terminal Aerodrome Forecast
Issued by NWS Mobile, AL

Home | Current Version | Previous Version | Text Only | Print | Product List | Glossary On
Versions: 1 2 3 4 5 6 7 8 9 10 11 12 13 14 15 16 17 18 19 20 21 22 23 24 25 26
242
FTUS44 KMOB 142356
TAFPNS
TAF
KPNS 142356Z 1500/1524 13007KT P6SM BKN030
     FM150400 12005KT P6SM OVC015
      TEMPO 1514/1518 P6SM -SHRA BKN010
     FM151800 16016KT 5SM -SHRA HZ OVC030
      TEMPO 1518/1521 3SM TSRA BKN015CB=

USA.gov is the U.S. government's official web portal to all federal, state and local government web resources and services.